Time;durP1;ratioP1;P1;durP2;ratioP2;P2;SDS_P1;SDS_P2;PMS_P1;PMS_P2;Temp;Humidity;BMP_temperature;BMP_pressure;BME280_temperature;BME280_humidity;BME280_pressure;Samples;Min_cycle;Max_cycle;Signal;HPM_P1;HPM_P2
2022/09/19 00:01:45;;;;;;;14.27;2.20;;;12.30;99.90;;;;;;6229458;22;20099;-80
2022/09/19 00:04:13;;;;;;;11.18;1.95;;;13.30;99.90;;;;;;6255543;22;20018;-82
2022/09/19 00:06:40;;;;;;;10.07;1.85;;;12.30;99.90;;;;;;6230680;22;20020;-83
2022/09/19 00:09:09;;;;;;;11.88;2.15;;;12.40;99.90;;;;;;6231695;22;20019;-83
2022/09/19 00:11:36;;;;;;;14.50;3.00;;;12.40;99.90;;;;;;6204810;22;20057;-82
2022/09/19 00:14:03;;;;;;;17.13;1.90;;;13.40;99.90;;;;;;6230936;22;20045;-81
2022/09/19 00:16:37;;;;;;;10.57;2.20;;;13.10;99.90;;;;;;6230040;22;20220;-82
2022/09/19 00:26:20;;;;;;;20.85;1.95;;;12.50;99.90;;;;;;6260037;22;20020;-81
2022/09/19 00:28:46;;;;;;;14.80;2.63;;;12.90;99.90;;;;;;6228253;22;20336;-79
2022/09/19 00:31:18;;;;;;;12.77;2.38;;;13.40;99.90;;;;;;6230177;22;20047;-81
2022/09/19 00:33:52;;;;;;;18.50;2.13;;;12.50;99.90;;;;;;6101027;23;20072;-80
2022/09/19 00:36:19;;;;;;;14.32;2.13;;;13.00;99.90;;;;;;6077774;23;20028;-81
2022/09/19 00:38:45;;;;;;;18.42;3.13;;;13.10;99.90;;;;;;6052605;23;20014;-80
2022/09/19 00:41:17;;;;;;;13.45;2.05;;;13.00;99.90;;;;;;6124710;23;20063;-82
2022/09/19 00:43:46;;;;;;;13.80;2.33;;;13.30;99.90;;;;;;6125316;23;20010;-83
2022/09/19 00:46:12;;;;;;;15.80;2.33;;;13.10;99.90;;;;;;6100877;23;20022;-82
2022/09/19 00:48:41;;;;;;;16.15;2.33;;;12.40;99.90;;;;;;6077423;23;20117;-80
2022/09/19 00:51:18;;;;;;;19.90;2.67;;;12.40;99.90;;;;;;6054731;23;20195;-80
2022/09/19 00:53:46;;;;;;;17.33;2.72;;;12.70;99.90;;;;;;6101028;23;20022;-81
2022/09/19 00:56:13;;;;;;;15.55;2.30;;;13.30;99.90;;;;;;6102848;23;20021;-82
2022/09/19 00:58:44;;;;;;;15.57;2.05;;;12.60;99.90;;;;;;6100844;23;20010;-82
2022/09/19 01:01:15;;;;;;;21.83;2.72;;;12.30;99.90;;;;;;6103657;23;20010;-82
2022/09/19 01:03:55;;;;;;;;;;;;;;;;;;;;;
2022/09/19 01:06:50;;;;;;;22.90;2.78;;;11.20;99.90;;;;;;6128794;23;20077;-83
2022/09/19 01:09:28;;;;;;;14.30;2.25;;;13.40;99.90;;;;;;6128398;23;20097;-81
2022/09/19 01:12:16;;;;;;;15.07;3.78;;;13.40;99.90;;;;;;6128164;23;20044;-82
2022/09/19 01:14:53;;;;;;;20.40;2.97;;;13.10;99.90;;;;;;6103948;23;20042;-82
2022/09/19 01:17:42;;;;;;;14.68;2.05;;;13.00;99.90;;;;;;6103491;23;20033;-82
2022/09/19 01:20:41;;;;;;;13.98;3.40;;;12.70;99.90;;;;;;6104664;23;20196;-81
2022/09/19 01:23:26;;;;;;;14.27;2.72;;;13.60;99.90;;;;;;6126085;23;20040;-81
2022/09/19 01:26:14;;;;;;;25.67;2.83;;;13.00;99.90;;;;;;6102769;23;20081;-81
2022/09/19 01:29:07;;;;;;;19.35;2.85;;;12.60;99.90;;;;;;6102781;23;20259;-82
2022/09/19 01:31:39;;;;;;;14.23;2.50;;;13.60;99.90;;;;;;6127852;22;20022;-83
2022/09/19 01:34:26;;;;;;;16.33;3.35;;;13.40;99.90;;;;;;6261519;22;20128;-83
2022/09/19 01:37:12;;;;;;;21.50;2.92;;;13.10;99.90;;;;;;6288606;22;20049;-83
2022/09/19 01:39:41;;;;;;;17.38;2.58;;;13.00;99.90;;;;;;6261644;22;20075;-83
2022/09/19 01:42:12;;;;;;;24.75;3.30;;;12.70;99.90;;;;;;6261815;22;20003;-84
2022/09/19 01:44:43;;;;;;;16.65;2.13;;;14.60;99.90;;;;;;6262060;22;20007;-82
2022/09/19 01:47:19;;;;;;;17.10;3.17;;;13.40;99.90;;;;;;6237635;22;20312;-83
2022/09/19 01:53:26;;;;;;;12.40;2.25;;;12.90;99.90;;;;;;6224033;23;20322;-84
2022/09/19 01:56:16;;;;;;;13.75;2.22;;;13.80;99.90;;;;;;6254884;22;20003;-82
2022/09/19 01:58:48;;;;;;;12.77;2.65;;;12.70;99.90;;;;;;6260953;22;20209;-82
2022/09/19 02:01:33;;;;;;;14.05;2.67;;;13.90;99.90;;;;;;6263523;22;20239;-83
2022/09/19 02:04:02;;;;;;;;;;;12.80;99.90;;;;;;6288424;22;20069;-82
2022/09/19 02:06:57;;;;;;;7.68;1.83;;;12.10;99.90;;;;;;6263239;22;19915;-80
2022/09/19 02:09:32;;;;;;;16.05;2.33;;;12.70;99.90;;;;;;6262083;22;20011;-84
2022/09/19 02:12:01;;;;;;;14.65;1.73;;;13.70;99.90;;;;;;6261037;22;20038;-81
2022/09/19 02:14:31;;;;;;;12.98;2.40;;;13.00;99.90;;;;;;6260897;22;20344;-83
2022/09/19 02:17:06;;;;;;;10.75;1.95;;;13.60;99.90;;;;;;6313122;22;20220;-82
2022/09/19 02:19:58;;;;;;;12.57;2.28;;;12.70;99.90;;;;;;6259972;22;20014;-82
2022/09/19 02:22:28;;;;;;;25.23;3.58;;;13.70;99.90;;;;;;6259673;22;20072;-83
2022/09/19 02:24:58;;;;;;;11.90;2.35;;;13.40;99.90;;;;;;6260465;22;20034;-83
2022/09/19 02:27:29;;;;;;;14.20;2.20;;;13.80;99.90;;;;;;6261403;22;20074;-81
2022/09/19 02:30:01;;;;;;;15.77;2.25;;;12.80;99.90;;;;;;6287400;22;20022;-82
2022/09/19 02:32:30;;;;;;;16.50;2.42;;;12.70;99.90;;;;;;6262165;22;20340;-82
2022/09/19 02:35:38;;;;;;;15.45;1.98;;;12.80;99.90;;;;;;6261202;22;20018;-85
2022/09/19 02:38:29;;;;;;;12.77;2.03;;;13.50;99.90;;;;;;6308995;22;20088;-81
2022/09/19 02:41:17;;;;;;;12.38;2.55;;;13.60;99.90;;;;;;6304675;22;20007;-82
2022/09/19 02:44:20;;;;;;;7.07;1.45;;;13.00;99.90;;;;;;6261345;22;20033;-81
2022/09/19 02:46:55;;;;;;;10.85;2.30;;;12.90;99.90;;;;;;6274517;22;20014;-82
2022/09/19 02:49:30;;;;;;;;;;;13.70;99.90;;;;;;6262526;22;20018;-83
2022/09/19 02:52:01;;;;;;;8.48;1.40;;;13.10;99.90;;;;;;6286726;22;19907;-83
2022/09/19 02:54:31;;;;;;;9.52;1.50;;;13.30;99.90;;;;;;6262370;22;20066;-82
2022/09/19 02:57:10;;;;;;;8.85;1.92;;;13.30;99.90;;;;;;6261715;22;20014;-83
2022/09/19 02:59:43;;;;;;;9.95;1.77;;;12.20;99.90;;;;;;6288202;22;20007;-82
2022/09/19 03:02:23;;;;;;;8.55;1.50;;;12.60;99.90;;;;;;6287659;22;20018;-83
2022/09/19 03:04:59;;;;;;;8.50;2.08;;;13.00;99.90;;;;;;6261809;22;20204;-82
2022/09/19 03:07:29;;;;;;;8.00;1.60;;;13.30;99.90;;;;;;6261522;22;20007;-81
2022/09/19 03:10:10;;;;;;;11.85;2.00;;;12.40;99.90;;;;;;6288120;22;20112;-83
2022/09/19 03:12:58;;;;;;;9.88;2.33;;;13.40;99.90;;;;;;6260566;22;20057;-83
2022/09/19 03:15:27;;;;;;;11.73;1.90;;;13.40;99.90;;;;;;6262222;22;20026;-80
2022/09/19 03:17:54;;;;;;;10.88;2.00;;;12.40;99.90;;;;;;6287209;22;20088;-82
2022/09/19 03:20:24;;;;;;;11.48;1.80;;;12.40;99.90;;;;;;6235946;22;20003;-82
2022/09/19 03:22:53;;;;;;;10.38;2.72;;;12.30;99.90;;;;;;6260900;22;20036;-79
2022/09/19 03:25:19;;;;;;;9.38;1.80;;;13.40;99.90;;;;;;6261114;22;20052;-81
2022/09/19 03:27:45;;;;;;;9.27;1.83;;;12.50;99.90;;;;;;6285564;22;20018;-80
2022/09/19 03:30:13;;;;;;;7.38;1.63;;;13.00;99.90;;;;;;6236674;22;20280;-83
2022/09/19 03:32:41;;;;;;;12.10;2.25;;;12.40;99.90;;;;;;6261627;22;20029;-82
2022/09/19 03:35:10;;;;;;;12.68;2.35;;;12.50;99.90;;;;;;6287112;22;20068;-81
2022/09/19 03:41:07;;;;;;;13.48;2.15;;;13.50;99.90;;;;;;6235115;22;20236;-81
2022/09/19 03:43:33;;;;;;;14.63;2.42;;;12.60;99.90;;;;;;6262692;22;20061;-82
2022/09/19 03:45:58;;;;;;;14.27;2.30;;;12.70;99.90;;;;;;6262106;22;20289;-82
2022/09/19 03:48:26;;;;;;;15.48;2.78;;;13.60;99.90;;;;;;6236252;22;20018;-81
2022/09/19 03:51:02;;;;;;;14.02;2.60;;;13.70;99.90;;;;;;6286330;22;20019;-82
2022/09/19 03:53:31;;;;;;;10.30;2.47;;;13.60;99.90;;;;;;6261351;22;20011;-81
2022/09/19 03:56:00;;;;;;;16.10;2.25;;;12.80;99.90;;;;;;6261671;22;20015;-81
2022/09/19 03:58:36;;;;;;;15.48;2.08;;;13.80;99.90;;;;;;6287377;22;20046;-81
2022/09/19 04:01:14;;;;;;;12.52;2.35;;;12.90;99.90;;;;;;6267156;22;20022;-81
2022/09/19 04:10:54;;;;;;;13.55;2.30;;;12.80;99.90;;;;;;6157403;23;20023;-81
2022/09/19 04:13:37;;;;;;;22.60;3.13;;;12.80;99.90;;;;;;6170701;23;20181;-80
2022/09/19 04:16:03;;;;;;;12.63;2.15;;;13.60;99.90;;;;;;6194769;23;20016;-81
2022/09/19 04:18:28;;;;;;;20.33;2.30;;;13.10;99.90;;;;;;6220472;23;20051;-81
2022/09/19 04:20:55;;;;;;;26.40;3.58;;;12.60;99.90;;;;;;6169519;23;20017;-80
2022/09/19 04:27:31;;;;;;;15.80;2.92;;;11.70;99.90;;;;;;6081394;23;20017;-81
2022/09/19 04:29:58;;;;;;;15.15;2.30;;;12.90;99.90;;;;;;6155705;23;20023;-80
2022/09/19 04:32:24;;;;;;;13.70;2.45;;;12.60;99.90;;;;;;6170219;23;20025;-80
2022/09/19 04:35:27;;;;;;;12.48;1.90;;;12.70;99.90;;;;;;6123472;23;20040;-79
2022/09/19 04:38:14;;;;;;;;;;;;;;;;;;;;;
2022/09/19 04:40:56;;;;;;;13.65;1.98;;;14.30;99.90;;;;;;6129490;23;20131;-79
2022/09/19 04:43:24;;;;;;;14.73;2.10;;;12.50;99.90;;;;;;6232190;23;20018;-80
2022/09/19 04:45:50;;;;;;;14.23;2.70;;;13.90;99.90;;;;;;6207381;23;20013;-80
2022/09/19 04:48:19;;;;;;;10.90;2.10;;;13.70;99.90;;;;;;6207004;23;20022;-79
2022/09/19 04:50:50;;;;;;;12.60;1.83;;;13.30;99.90;;;;;;6233354;23;20021;-80
2022/09/19 04:53:23;;;;;;;12.68;2.17;;;12.70;99.90;;;;;;6205299;23;20200;-82
2022/09/19 04:55:51;;;;;;;12.63;2.08;;;12.90;99.90;;;;;;6232229;23;20017;-79
2022/09/19 04:58:18;;;;;;;11.85;2.20;;;12.50;99.90;;;;;;6206891;23;20018;-78
2022/09/19 05:00:53;;;;;;;19.83;2.28;;;12.70;99.90;;;;;;6207105;23;20355;-80
2022/09/19 05:03:30;;;;;;;30.08;3.75;;;12.60;99.90;;;;;;6205387;23;20014;-81
2022/09/19 05:06:12;;;;;;;;;;;;;;;;;;;;;
2022/09/19 05:08:41;;;;;;;16.90;2.60;;;12.30;99.90;;;;;;6241275;22;20018;-82
2022/09/19 05:11:08;;;;;;;13.52;2.65;;;13.10;99.90;;;;;;6206576;23;20225;-80
2022/09/19 05:13:40;;;;;;;12.93;1.95;;;13.60;99.90;;;;;;6205904;23;20010;-80
2022/09/19 05:16:07;;;;;;;14.52;3.10;;;12.40;99.90;;;;;;6206691;23;20219;-80
2022/09/19 05:18:35;;;;;;;16.23;2.42;;;13.40;99.90;;;;;;6206482;23;20010;-81
2022/09/19 05:21:10;;;;;;;19.75;2.25;;;13.00;99.90;;;;;;6207338;23;20073;-77
2022/09/19 05:23:37;;;;;;;13.90;2.80;;;12.60;99.90;;;;;;6205838;23;20232;-79
2022/09/19 05:26:09;;;;;;;14.88;2.40;;;13.50;99.90;;;;;;6206373;23;20305;-79
2022/09/19 05:28:38;;;;;;;20.10;3.15;;;13.50;99.90;;;;;;6205337;23;20014;-80
2022/09/19 05:31:05;;;;;;;10.65;2.10;;;12.70;99.90;;;;;;6103638;23;20022;-81
2022/09/19 05:33:32;;;;;;;17.67;3.13;;;13.30;99.90;;;;;;6132516;22;20053;-79
2022/09/19 05:36:00;;;;;;;19.25;3.08;;;13.00;99.90;;;;;;6104080;23;20021;-79
2022/09/19 05:38:30;;;;;;;19.75;2.80;;;13.30;99.90;;;;;;6205927;23;20245;-80
2022/09/19 05:41:01;;;;;;;17.33;3.05;;;13.60;99.90;;;;;;6103737;23;20297;-79
2022/09/19 05:43:27;;;;;;;21.55;3.13;;;13.40;99.90;;;;;;6102903;23;20013;-81
2022/09/19 05:45:57;;;;;;;13.38;2.00;;;13.00;99.90;;;;;;6128037;23;20100;-80
2022/09/19 05:48:31;;;;;;;19.55;2.50;;;13.60;99.90;;;;;;6127812;23;20017;-82
2022/09/19 05:50:57;;;;;;;15.57;2.08;;;13.60;99.90;;;;;;6104512;23;20044;-81
2022/09/19 05:56:08;;;;;;;11.15;2.33;;;13.90;99.90;;;;;;6106825;23;20017;-80
2022/09/19 05:58:35;;;;;;;18.30;2.47;;;11.80;99.90;;;;;;6102581;23;20014;-82
2022/09/19 06:01:06;;;;;;;19.77;2.90;;;13.00;99.90;;;;;;6127647;23;20010;-81
2022/09/19 06:03:35;;;;;;;17.55;2.50;;;13.20;99.90;;;;;;6105236;23;20303;-81
2022/09/19 06:06:05;;;;;;;16.83;2.42;;;12.80;99.90;;;;;;6128824;23;20014;-81
2022/09/19 06:08:30;;;;;;;14.38;3.22;;;13.70;99.90;;;;;;6104681;23;20010;-81
2022/09/19 06:11:00;;;;;;;12.30;1.77;;;12.80;99.90;;;;;;6130017;23;20014;-82
2022/09/19 06:14:13;;;;;;;14.63;2.53;;;12.90;99.90;;;;;;6103952;23;20014;-80
2022/09/19 06:16:11;;;;;;;20.50;2.60;;;12.60;99.90;;;;;;6127297;23;20010;-82
2022/09/19 06:18:48;;;;;;;15.10;2.30;;;13.40;99.90;;;;;;6102763;23;20009;-81
2022/09/19 06:21:15;;;;;;;18.73;2.85;;;12.90;99.90;;;;;;6104707;23;20056;-82
2022/09/19 06:23:48;;;;;;;12.93;2.22;;;13.90;99.90;;;;;;6104882;23;20310;-83
2022/09/19 06:26:20;;;;;;;17.63;2.72;;;13.00;99.90;;;;;;6080766;23;20014;-83
2022/09/19 06:28:46;;;;;;;12.88;2.65;;;12.90;99.90;;;;;;6059184;23;20300;-84
2022/09/19 06:31:16;;;;;;;16.98;2.45;;;14.10;99.90;;;;;;6104202;23;20014;-84
2022/09/19 06:33:48;;;;;;;11.85;2.10;;;14.60;99.90;;;;;;6235005;22;20020;-83
2022/09/19 06:37:16;;;;;;;13.75;2.67;;;13.50;99.90;;;;;;6257908;22;20031;-82
2022/09/19 06:40:08;;;;;;;9.07;1.77;;;13.50;99.90;;;;;;6167051;22;20063;-83
2022/09/19 06:57:50;;;;;;;11.30;1.98;;;13.70;99.90;;;;;;6043335;23;20062;-83
2022/09/19 07:00:46;;;;;;;;;;;;;;;;;;;;;
2022/09/19 07:03:19;;;;;;;9.75;2.55;;;13.70;99.90;;;;;;6252508;22;20011;-80
2022/09/19 07:05:59;;;;;;;10.70;2.03;;;13.90;99.90;;;;;;6233408;22;20039;-80
2022/09/19 07:08:25;;;;;;;14.45;2.53;;;13.90;99.90;;;;;;6233803;22;20233;-80
2022/09/19 07:10:51;;;;;;;9.48;2.65;;;12.70;99.90;;;;;;6257951;22;20020;-81
2022/09/19 07:13:19;;;;;;;9.38;2.00;;;13.80;99.90;;;;;;6232347;22;20026;-80
2022/09/19 07:15:48;;;;;;;7.60;1.67;;;13.80;99.90;;;;;;6233774;22;20007;-79
2022/09/19 07:18:18;;;;;;;10.63;2.55;;;13.90;99.90;;;;;;6209815;22;20100;-80
2022/09/19 07:21:46;;;;;;;10.77;2.28;;;12.90;99.90;;;;;;6208877;22;20008;-83
2022/09/19 07:24:27;;;;;;;16.23;2.13;;;13.60;99.90;;;;;;6216459;22;20016;-77
2022/09/19 07:30:45;;;;;;;14.38;1.65;;;12.90;99.90;;;;;;6209124;22;20011;-80
2022/09/19 07:33:24;;;;;;;9.35;1.75;;;13.30;99.90;;;;;;6237737;22;20370;-80
2022/09/19 07:35:55;;;;;;;14.52;2.50;;;13.80;99.90;;;;;;6207600;22;20023;-81
2022/09/19 07:38:24;;;;;;;14.88;2.28;;;14.30;99.90;;;;;;6231071;22;20121;-81
2022/09/19 07:40:54;;;;;;;14.77;2.47;;;13.90;99.90;;;;;;6233373;22;20022;-80
2022/09/19 07:43:20;;;;;;;13.30;3.22;;;12.60;99.90;;;;;;6258073;22;20218;-81
2022/09/19 07:45:54;;;;;;;11.85;2.20;;;14.30;99.90;;;;;;6254586;22;20007;-81
2022/09/19 07:48:21;;;;;;;13.48;2.83;;;14.00;99.90;;;;;;6232013;22;20011;-80
2022/09/19 07:59:54;;;;;;;12.65;2.17;;;12.60;99.90;;;;;;6097637;23;20014;-81
2022/09/19 08:02:32;;;;;;;12.00;2.38;;;13.10;99.90;;;;;;5964632;24;20012;-80
2022/09/19 08:05:04;;;;;;;16.50;2.33;;;13.80;99.90;;;;;;5962906;24;20055;-78
2022/09/19 08:07:52;;;;;;;18.30;3.28;;;14.80;99.90;;;;;;6101770;23;20064;-79
2022/09/19 08:13:06;;;;;;;15.50;2.15;;;13.30;99.90;;;;;;6256727;22;20022;-78
2022/09/19 08:16:30;;;;;;;11.60;2.13;;;14.00;99.90;;;;;;6231290;22;20015;-79
2022/09/19 08:20:23;;;;;;;20.83;3.10;;;13.80;99.90;;;;;;6273808;22;20030;-78
2022/09/19 08:22:37;;;;;;;13.05;2.25;;;15.30;99.90;;;;;;6165179;22;20123;-78
2022/09/19 08:28:30;;;;;;;15.38;2.33;;;14.10;99.90;;;;;;6242319;22;20018;-78
2022/09/19 08:31:00;;;;;;;10.05;2.00;;;14.60;99.90;;;;;;6203013;22;20247;-79
2022/09/19 08:52:15;;;;;;;13.18;2.63;;;15.00;99.90;;;;;;5986931;24;20020;-79
2022/09/19 08:55:27;;;;;;;13.70;2.00;;;14.90;99.90;;;;;;6038672;23;20308;-79
2022/09/19 08:58:07;;;;;;;8.32;1.65;;;14.60;99.90;;;;;;6042744;23;20070;-78
2022/09/19 09:00:47;;;;;;;8.55;1.80;;;14.50;99.90;;;;;;6070319;23;20267;-77
2022/09/19 09:03:38;;;;;;;9.65;2.17;;;14.50;99.90;;;;;;6116392;22;20344;-77
2022/09/19 09:06:13;;;;;;;10.40;2.05;;;15.20;99.90;;;;;;6222383;22;20070;-77
2022/09/19 09:09:27;;;;;;;12.13;2.88;;;15.80;99.90;;;;;;6232036;22;20336;-78
2022/09/19 09:20:17;;;;;;;15.15;2.17;;;14.60;99.90;;;;;;5941315;24;20020;-79
2022/09/19 09:23:33;;;;;;;13.85;2.00;;;15.80;99.90;;;;;;5978029;23;20041;-79
2022/09/19 09:26:12;;;;;;;12.60;2.28;;;16.00;99.90;;;;;;6081332;23;20127;-80
2022/09/19 09:28:57;;;;;;;11.18;2.90;;;15.60;99.90;;;;;;6129696;23;20025;-79
2022/09/19 09:31:31;;;;;;;11.57;2.40;;;15.60;99.90;;;;;;6081268;23;20025;-80
2022/09/19 09:34:03;;;;;;;11.85;2.20;;;15.50;99.90;;;;;;6208066;23;20200;-80
2022/09/19 09:36:47;;;;;;;6.93;2.15;;;15.50;99.90;;;;;;6236358;23;20017;-79
2022/09/19 09:39:25;;;;;;;13.25;2.30;;;15.50;99.90;;;;;;6235681;23;20177;-79
2022/09/19 09:41:56;;;;;;;11.45;2.70;;;16.10;99.90;;;;;;6257550;22;20235;-79
2022/09/19 09:44:57;;;;;;;9.77;1.70;;;16.40;99.90;;;;;;6232980;23;20298;-80
2022/09/19 09:47:48;;;;;;;10.68;1.90;;;16.30;99.90;;;;;;6233293;23;20022;-80
2022/09/19 09:50:20;;;;;;;11.43;2.22;;;16.10;99.90;;;;;;6259850;22;20240;-80
2022/09/19 09:53:43;;;;;;;10.27;2.15;;;15.70;99.90;;;;;;6232361;23;20118;-81
2022/09/19 09:56:17;;;;;;;11.23;2.92;;;15.10;99.90;;;;;;6251253;23;20012;-79
2022/09/19 09:59:07;;;;;;;6.70;1.52;;;14.80;99.90;;;;;;6225723;23;20008;-82
2022/09/19 10:05:08;;;;;;;10.45;2.47;;;14.50;99.90;;;;;;6256804;22;20013;-80
2022/09/19 10:08:14;;;;;;;13.65;2.25;;;14.20;99.90;;;;;;6261016;22;20009;-80
2022/09/19 10:11:22;;;;;;;11.05;2.45;;;14.20;99.90;;;;;;6261318;22;20212;-81
2022/09/19 10:14:11;;;;;;;;;;;;;;;;;;;;;
2022/09/19 10:16:46;;;;;;;7.93;1.75;;;14.10;99.90;;;;;;6221364;22;20065;-71
2022/09/19 10:19:26;;;;;;;8.57;2.00;;;14.20;99.90;;;;;;6235978;22;20041;-80
2022/09/19 10:25:38;;;;;;;12.73;2.28;;;15.00;99.90;;;;;;6244175;22;20026;-79
2022/09/19 10:29:12;;;;;;;11.18;2.05;;;15.30;99.90;;;;;;6238349;22;20022;-76
2022/09/19 10:31:47;;;;;;;10.93;2.17;;;15.60;99.90;;;;;;6253214;22;20104;-76
2022/09/19 10:34:30;;;;;;;12.98;1.85;;;16.00;99.90;;;;;;6255646;22;20035;-76
2022/09/19 10:37:02;;;;;;;13.57;2.95;;;15.90;99.90;;;;;;6257448;22;20010;-73
2022/09/19 10:39:29;;;;;;;9.38;1.95;;;15.80;99.90;;;;;;6229591;22;20018;-79
2022/09/19 10:41:55;;;;;;;11.52;2.63;;;15.50;99.90;;;;;;6206105;22;20323;-76
2022/09/19 10:44:25;;;;;;;5.97;1.60;;;15.40;99.90;;;;;;6256686;22;20012;-76
2022/09/19 10:47:03;;;;;;;11.80;1.65;;;15.90;99.90;;;;;;6232522;22;20332;-79
2022/09/19 10:49:36;;;;;;;11.93;2.50;;;15.90;99.90;;;;;;6231649;22;20047;-78
2022/09/19 10:52:03;;;;;;;7.50;1.65;;;16.00;99.90;;;;;;6231825;22;20011;-77
2022/09/19 10:54:39;;;;;;;7.22;1.63;;;16.00;99.90;;;;;;6227560;22;20019;-81
2022/09/19 10:57:26;;;;;;;9.93;1.65;;;14.80;99.90;;;;;;6232780;22;20008;-84
2022/09/19 11:00:02;;;;;;;12.18;2.58;;;14.30;99.90;;;;;;6257025;22;20012;-81
2022/09/19 11:02:36;;;;;;;10.32;2.65;;;14.20;99.90;;;;;;6236966;22;20007;-82
2022/09/19 11:05:05;;;;;;;10.00;2.10;;;14.40;99.90;;;;;;6232544;22;20161;-82
2022/09/19 11:07:58;;;;;;;8.02;2.00;;;14.10;99.90;;;;;;6231671;22;20008;-84
2022/09/19 11:10:39;;;;;;;7.43;1.77;;;14.80;99.90;;;;;;6232757;22;20018;-82
2022/09/19 11:13:25;;;;;;;9.20;1.88;;;14.50;99.90;;;;;;6230945;22;20019;-77
2022/09/19 11:15:59;;;;;;;6.35;1.52;;;14.90;99.90;;;;;;6206756;22;20408;-78
2022/09/19 11:18:34;;;;;;;;;;;15.40;99.90;;;;;;6231339;22;20066;-78
2022/09/19 11:21:12;;;;;;;11.23;2.13;;;15.70;99.90;;;;;;6254928;22;19915;-78
2022/09/19 11:23:59;;;;;;;12.80;1.98;;;15.90;99.90;;;;;;6228955;22;20047;-76
2022/09/19 11:26:35;;;;;;;10.57;2.10;;;15.90;99.90;;;;;;6228504;22;20376;-79
2022/09/19 11:29:25;;;;;;;7.97;1.70;;;16.00;99.90;;;;;;6230290;22;20011;-76
2022/09/19 11:32:15;;;;;;;9.55;2.13;;;15.40;99.90;;;;;;6229596;22;20034;-75
2022/09/19 11:34:41;;;;;;;6.68;1.58;;;15.70;99.90;;;;;;6228824;22;20083;-76
2022/09/19 11:37:22;;;;;;;8.68;1.92;;;16.00;99.90;;;;;;6229098;22;20030;-75
2022/09/19 11:40:00;;;;;;;13.55;1.95;;;16.10;99.90;;;;;;6253769;22;20016;-77
2022/09/19 11:42:29;;;;;;;9.93;1.88;;;16.10;99.90;;;;;;6255616;22;20023;-77
2022/09/19 11:45:10;;;;;;;9.07;1.60;;;16.10;99.90;;;;;;6230890;22;20313;-76
2022/09/19 11:48:02;;;;;;;8.27;1.80;;;16.00;99.90;;;;;;6231914;22;20007;-77
2022/09/19 11:50:29;;;;;;;8.10;1.90;;;16.10;99.90;;;;;;6189797;22;20008;-78
2022/09/19 11:53:10;;;;;;;12.23;2.05;;;15.80;99.90;;;;;;6256431;22;20019;-76
2022/09/19 11:56:12;;;;;;;14.32;2.20;;;16.10;99.90;;;;;;6229576;22;20035;-77
2022/09/19 11:58:46;;;;;;;10.75;1.92;;;16.40;99.90;;;;;;6231336;22;20395;-74
2022/09/19 12:01:35;;;;;;;9.32;2.20;;;16.10;99.90;;;;;;6254563;22;20008;-75
2022/09/19 12:05:01;;;;;;;9.38;1.75;;;15.90;99.90;;;;;;6229739;22;20012;-74
2022/09/19 12:07:56;;;;;;;12.90;1.85;;;16.00;99.90;;;;;;6138934;23;20045;-74
2022/09/19 12:10:37;;;;;;;9.98;1.60;;;16.20;99.90;;;;;;6137849;23;20020;-79
2022/09/19 12:13:14;;;;;;;11.30;2.00;;;16.10;99.90;;;;;;6236353;22;20229;-79
2022/09/19 12:15:45;;;;;;;10.50;2.08;;;16.20;99.90;;;;;;6258101;22;20014;-78
2022/09/19 12:18:14;;;;;;;9.38;1.70;;;16.00;99.90;;;;;;6232453;22;20015;-80
2022/09/19 12:20:47;;;;;;;7.53;1.70;;;16.00;99.90;;;;;;6232767;22;20022;-79
2022/09/19 12:26:12;;;;;;;8.57;1.77;;;16.10;99.90;;;;;;6258698;22;20093;-76
2022/09/19 12:28:46;;;;;;;8.75;1.60;;;16.00;99.90;;;;;;6257367;22;20018;-76
2022/09/19 12:31:16;;;;;;;10.90;2.65;;;16.20;99.90;;;;;;6256881;22;20020;-76
2022/09/19 12:33:51;;;;;;;9.38;2.05;;;16.40;99.90;;;;;;6257219;22;20020;-76
2022/09/19 12:36:35;;;;;;;5.57;1.60;;;16.60;99.90;;;;;;6258051;22;20171;-76
2022/09/19 12:39:12;;;;;;;6.10;1.85;;;16.50;99.90;;;;;;6232313;22;20008;-75
2022/09/19 12:41:42;;;;;;;7.05;1.67;;;16.40;99.90;;;;;;6231447;22;20014;-75
2022/09/19 12:45:12;;;;;;;10.25;1.65;;;16.50;99.90;;;;;;6232127;22;20019;-75
2022/09/19 12:47:46;;;;;;;10.95;1.70;;;16.20;99.90;;;;;;6111506;23;20087;-78
2022/09/19 12:50:19;;;;;;;8.80;1.45;;;16.30;99.90;;;;;;6258214;22;20306;-79
2022/09/19 12:53:13;;;;;;;6.80;1.92;;;16.30;99.90;;;;;;6231202;22;20206;-77
2022/09/19 12:56:01;;;;;;;12.45;1.92;;;16.30;99.90;;;;;;6229268;22;20016;-81
2022/09/19 12:58:58;;;;;;;9.05;1.70;;;16.50;99.90;;;;;;6230163;22;20004;-76
2022/09/19 13:01:35;;;;;;;6.28;1.67;;;16.50;99.90;;;;;;6257212;22;20007;-77
2022/09/19 13:04:09;;;;;;;7.70;1.60;;;16.50;99.90;;;;;;6207117;22;20047;-76
2022/09/19 13:06:43;;;;;;;9.18;1.75;;;16.50;99.90;;;;;;6257413;22;20066;-78
2022/09/19 13:09:20;;;;;;;6.50;1.58;;;16.50;99.90;;;;;;6232246;22;20229;-76
2022/09/19 13:11:59;;;;;;;15.68;2.22;;;16.50;99.90;;;;;;6256838;22;20061;-76
2022/09/19 13:14:36;;;;;;;13.82;2.05;;;16.20;99.90;;;;;;6231666;22;20281;-78
2022/09/19 13:25:39;;;;;;;6.18;2.10;;;16.30;99.90;;;;;;6254920;22;20019;-78
2022/09/19 13:28:20;;;;;;;7.50;1.83;;;16.40;99.90;;;;;;6233331;22;20015;-79
2022/09/19 13:30:49;;;;;;;7.75;1.67;;;16.30;99.90;;;;;;6256731;22;20023;-77
2022/09/19 13:33:47;;;;;;;10.27;1.80;;;16.20;99.90;;;;;;6257516;22;20326;-78
2022/09/19 13:36:48;;;;;;;6.55;1.40;;;16.00;99.90;;;;;;6232960;22;20011;-78
2022/09/19 13:39:59;;;;;;;6.45;1.52;;;15.90;99.90;;;;;;6255574;22;20019;-78
2022/09/19 13:42:40;;;;;;;9.82;2.03;;;15.70;99.90;;;;;;6189799;22;20007;-79
2022/09/19 13:45:24;;;;;;;10.55;2.03;;;16.00;99.90;;;;;;6230403;22;20015;-78
2022/09/19 13:47:54;;;;;;;7.43;1.60;;;16.00;99.90;;;;;;6254972;22;20012;-77
2022/09/19 13:50:32;;;;;;;6.82;1.50;;;15.70;99.90;;;;;;6255372;22;20063;-78
2022/09/19 13:53:02;;;;;;;5.97;1.58;;;15.40;99.90;;;;;;6254904;22;20233;-77
2022/09/19 13:55:41;;;;;;;7.95;1.83;;;15.30;99.90;;;;;;6229492;22;20071;-77
2022/09/19 14:01:36;;;;;;;8.40;1.48;;;15.00;99.90;;;;;;6249549;22;20020;-78
2022/09/19 14:06:59;;;;;;;11.00;1.60;;;14.40;99.90;;;;;;6232932;22;20023;-79
2022/09/19 14:09:41;;;;;;;10.27;2.10;;;14.10;99.90;;;;;;6228574;22;20210;-79
2022/09/19 14:13:09;;;;;;;8.60;2.28;;;13.90;99.90;;;;;;6249788;22;20011;-79
2022/09/19 14:16:06;;;;;;;9.77;2.20;;;13.90;99.90;;;;;;6163192;23;20456;-80
2022/09/19 14:19:00;;;;;;;;;;;;;;;;;;;;;
2022/09/19 14:29:46;;;;;;;;;;;;;;;;;;;;;
2022/09/19 14:35:15;;;;;;;8.65;2.30;;;14.30;99.90;;;;;;6148197;22;20061;-79
2022/09/19 14:38:21;;;;;;;12.02;1.90;;;14.20;99.90;;;;;;6102014;23;20013;-80
2022/09/19 14:40:51;;;;;;;10.95;2.25;;;14.40;99.90;;;;;;6228720;23;20402;-79
2022/09/19 14:43:44;;;;;;;11.70;2.28;;;14.40;99.90;;;;;;6231602;23;20018;-79
2022/09/19 14:46:37;;;;;;;7.40;1.95;;;14.40;99.90;;;;;;6223454;23;20009;-79
2022/09/19 14:49:25;;;;;;;6.72;1.50;;;14.50;99.90;;;;;;6221702;23;20308;-80
2022/09/19 14:52:01;;;;;;;10.13;1.70;;;14.40;99.90;;;;;;6229394;23;20056;-79
2022/09/19 14:54:49;;;;;;;5.20;1.30;;;14.50;99.90;;;;;;6206388;23;20190;-79
2022/09/19 14:57:21;;;;;;;6.30;1.45;;;14.50;99.90;;;;;;6230324;23;20113;-79
2022/09/19 14:59:52;;;;;;;7.75;1.50;;;14.40;99.90;;;;;;6230798;23;20025;-79
2022/09/19 15:02:33;;;;;;;8.13;1.88;;;14.20;99.90;;;;;;6100273;23;20052;-79
2022/09/19 15:05:14;;;;;;;5.82;1.25;;;14.10;99.90;;;;;;6100389;23;20048;-78
2022/09/19 15:07:42;;;;;;;7.82;1.52;;;14.20;99.90;;;;;;6230457;23;20077;-78
2022/09/19 15:10:40;;;;;;;11.45;1.60;;;14.40;99.90;;;;;;6080191;23;20017;-80
2022/09/19 15:13:20;;;;;;;6.20;1.52;;;14.60;99.90;;;;;;6190182;23;20080;-80
2022/09/19 15:15:53;;;;;;;8.68;1.73;;;14.80;99.90;;;;;;6230694;23;20292;-79
2022/09/19 15:18:44;;;;;;;12.23;2.42;;;14.70;99.90;;;;;;6231005;23;20205;-80
2022/09/19 15:21:26;;;;;;;11.60;1.80;;;14.70;99.90;;;;;;6221417;23;20018;-80
2022/09/19 15:23:57;;;;;;;5.28;1.55;;;14.80;99.90;;;;;;6229965;23;20200;-78
2022/09/19 15:26:26;;;;;;;11.85;1.70;;;14.80;99.90;;;;;;6229811;23;20048;-78
2022/09/19 15:28:56;;;;;;;7.68;2.17;;;14.80;99.90;;;;;;6230242;23;20304;-79
2022/09/19 15:31:24;;;;;;;9.57;1.52;;;14.70;99.90;;;;;;6230151;23;20028;-77
2022/09/19 15:34:11;;;;;;;9.45;1.75;;;14.70;99.90;;;;;;6256377;22;20117;-78
2022/09/19 15:36:37;;;;;;;13.20;2.10;;;14.70;99.90;;;;;;6229913;22;20026;-79
2022/09/19 15:39:05;;;;;;;7.78;1.98;;;14.90;99.90;;;;;;6205083;22;20316;-77
2022/09/19 15:41:32;;;;;;;9.52;1.75;;;14.90;99.90;;;;;;6225789;22;20133;-77
2022/09/19 15:44:01;;;;;;;11.68;2.03;;;14.80;99.90;;;;;;6228706;22;20039;-78
2022/09/19 15:46:29;;;;;;;4.78;1.45;;;14.80;99.90;;;;;;6231399;22;20271;-79
2022/09/19 15:48:59;;;;;;;9.23;1.67;;;14.70;99.90;;;;;;6231346;22;20042;-78